createdAt,value
2023-08-03T00:00:48.737Z,2.10
2023-08-03T00:01:48.885Z,2.00
2023-08-03T00:02:48.820Z,2.20
2023-08-03T00:03:48.839Z,1.30
2023-08-03T00:04:48.638Z,1.50
2023-08-03T00:05:48.761Z,1.60
2023-08-03T00:06:48.632Z,1.90
2023-08-03T00:07:48.637Z,1.70
2023-08-03T00:08:48.629Z,1.10
2023-08-03T00:09:48.597Z,1.50
2023-08-03T00:10:48.571Z,1.30
2023-08-03T00:11:48.595Z,1.60
2023-08-03T00:12:48.539Z,1.70
2023-08-03T00:13:48.554Z,1.60
2023-08-03T00:14:48.517Z,2.20
2023-08-03T00:15:48.575Z,1.40
2023-08-03T00:16:48.510Z,1.60
2023-08-03T00:17:48.525Z,1.50
2023-08-03T00:18:48.484Z,1.50
2023-08-03T00:19:48.483Z,1.50
2023-08-03T00:20:48.449Z,1.30
2023-08-03T00:21:48.459Z,1.40
2023-08-03T00:22:48.425Z,1.60
2023-08-03T00:23:48.424Z,1.50
2023-08-03T00:24:48.387Z,2.10
2023-08-03T00:25:48.405Z,1.90
2023-08-03T00:26:48.360Z,1.50
2023-08-03T00:27:48.388Z,1.40
2023-08-03T00:28:48.333Z,1.40
2023-08-03T00:29:48.339Z,1.50
2023-08-03T00:30:48.368Z,1.30
2023-08-03T00:31:48.347Z,1.50
2023-08-03T00:32:48.288Z,1.50
2023-08-03T00:33:48.312Z,1.30
2023-08-03T00:34:48.244Z,1.20
2023-08-03T00:35:48.295Z,1.60
2023-08-03T00:36:48.244Z,1.10
2023-08-03T00:37:48.255Z,1.50
2023-08-03T00:38:48.196Z,1.20
2023-08-03T00:39:48.209Z,1.50
2023-08-03T00:40:48.200Z,1.50
2023-08-03T00:41:48.180Z,1.70
2023-08-03T00:42:48.189Z,1.20
2023-08-03T00:43:48.149Z,1.30
2023-08-03T00:44:48.157Z,1.60
2023-08-03T00:45:48.139Z,1.40
2023-08-03T00:46:48.124Z,1.30
2023-08-03T00:47:48.253Z,1.50
2023-08-03T00:48:48.087Z,1.60
2023-08-03T00:49:48.083Z,1.70
2023-08-03T00:50:48.054Z,1.60
2023-08-03T00:51:48.054Z,2.10
2023-08-03T00:52:48.029Z,1.40
2023-08-03T00:53:48.023Z,1.20
2023-08-03T00:54:48.000Z,1.50
2023-08-03T00:55:48.016Z,1.50
2023-08-03T00:56:47.962Z,1.40
2023-08-03T00:57:47.987Z,1.30
2023-08-03T00:58:47.974Z,1.40
2023-08-03T00:59:47.969Z,1.20
2023-08-03T01:00:47.964Z,1.00
2023-08-03T01:01:47.985Z,1.40
2023-08-03T01:02:47.951Z,1.30
2023-08-03T01:03:47.907Z,1.50
2023-08-03T01:04:47.862Z,1.20
2023-08-03T01:05:47.881Z,1.40
2023-08-03T01:06:47.874Z,1.60
2023-08-03T01:07:47.848Z,1.00
2023-08-03T01:08:47.837Z,1.50
2023-08-03T01:09:47.814Z,0.90
2023-08-03T01:10:47.799Z,1.90
2023-08-03T01:11:47.840Z,1.20
2023-08-03T01:12:47.776Z,1.40
2023-08-03T01:13:47.752Z,1.70
2023-08-03T01:14:47.738Z,1.00
2023-08-03T01:15:47.798Z,1.30
2023-08-03T01:16:47.718Z,1.60
2023-08-03T01:17:47.753Z,1.30
2023-08-03T01:18:47.669Z,1.60
2023-08-03T01:19:47.713Z,1.70
2023-08-03T01:20:47.686Z,1.40
2023-08-03T01:21:47.782Z,1.30
2023-08-03T01:22:47.653Z,1.30
2023-08-03T01:23:47.665Z,1.40
2023-08-03T01:24:47.633Z,1.40
2023-08-03T01:25:47.609Z,1.30
2023-08-03T01:26:47.585Z,1.40
2023-08-03T01:27:47.614Z,1.30
2023-08-03T01:28:47.565Z,1.40
2023-08-03T01:29:47.566Z,1.40
2023-08-03T01:30:47.551Z,1.20
2023-08-03T01:31:47.530Z,1.30
2023-08-03T01:32:47.668Z,1.60
2023-08-03T01:33:47.537Z,1.20
2023-08-03T01:34:47.512Z,1.70
2023-08-03T01:35:47.501Z,1.70
2023-08-03T01:36:47.447Z,1.40
2023-08-03T01:37:47.444Z,1.20
2023-08-03T01:38:47.441Z,1.20
2023-08-03T01:39:47.417Z,1.10
2023-08-03T01:40:47.403Z,1.30
2023-08-03T01:41:47.488Z,2.00
2023-08-03T01:42:47.370Z,1.20
2023-08-03T01:43:47.418Z,1.40
2023-08-03T01:44:47.341Z,0.90
2023-08-03T01:45:47.356Z,1.80
2023-08-03T01:46:47.305Z,1.50
2023-08-03T01:47:47.361Z,1.20
2023-08-03T01:48:47.299Z,1.10
2023-08-03T01:49:47.303Z,2.00
2023-08-03T01:50:47.251Z,1.10
2023-08-03T01:51:47.310Z,1.30
2023-08-03T01:52:47.255Z,1.10
2023-08-03T01:53:47.243Z,1.40
2023-08-03T01:54:47.225Z,1.20
2023-08-03T01:55:47.209Z,0.90
2023-08-03T01:56:47.180Z,1.10
2023-08-03T01:57:47.185Z,1.70
2023-08-03T01:58:47.159Z,1.20
2023-08-03T01:59:47.196Z,1.20
2023-08-03T02:00:49.770Z,1.50
2023-08-03T02:01:47.412Z,1.10
2023-08-03T02:02:47.127Z,1.10
2023-08-03T02:03:47.129Z,1.10
2023-08-03T02:04:47.098Z,1.10
2023-08-03T02:05:47.114Z,1.40
2023-08-03T02:06:47.036Z,1.20
2023-08-03T02:07:47.100Z,1.20
2023-08-03T02:08:47.048Z,1.30
2023-08-03T02:09:47.041Z,0.80
2023-08-03T02:10:47.017Z,0.80
2023-08-03T02:11:47.160Z,0.80
2023-08-03T02:12:46.977Z,1.20
2023-08-03T02:13:47.013Z,1.10
2023-08-03T02:14:47.010Z,1.00
2023-08-03T02:15:46.966Z,1.10
2023-08-03T02:16:46.928Z,0.90
2023-08-03T02:17:46.963Z,0.80
2023-08-03T02:18:46.905Z,0.80
2023-08-03T02:19:46.914Z,0.90
2023-08-03T02:20:46.887Z,0.80
2023-08-03T02:21:46.926Z,1.40
2023-08-03T02:22:46.836Z,1.00
2023-08-03T02:23:46.847Z,0.90
2023-08-03T02:24:46.821Z,0.80
2023-08-03T02:25:46.849Z,1.40
2023-08-03T02:26:46.784Z,0.80
2023-08-03T02:27:46.795Z,0.90
2023-08-03T02:28:46.771Z,0.60
2023-08-03T02:29:46.760Z,0.80
2023-08-03T02:30:46.758Z,0.70
2023-08-03T02:31:46.837Z,0.60
2023-08-03T02:32:46.763Z,0.60
2023-08-03T02:33:46.729Z,0.60
2023-08-03T02:34:46.680Z,1.00
2023-08-03T02:35:46.691Z,0.70
2023-08-03T02:36:46.658Z,0.60
2023-08-03T02:37:46.681Z,0.70
2023-08-03T02:38:46.619Z,0.70
2023-08-03T02:39:46.657Z,1.30
2023-08-03T02:40:46.601Z,0.60
2023-08-03T02:41:46.892Z,1.00
2023-08-03T02:42:46.600Z,0.90
2023-08-03T02:43:46.589Z,1.00
2023-08-03T02:44:46.554Z,1.00
2023-08-03T02:45:46.600Z,0.80
2023-08-03T02:46:46.549Z,0.80
2023-08-03T02:47:46.588Z,0.90
2023-08-03T02:48:46.503Z,0.80
2023-08-03T02:49:46.522Z,1.00
2023-08-03T02:50:46.477Z,0.70
2023-08-03T02:51:46.809Z,0.80
2023-08-03T02:52:46.446Z,0.60
2023-08-03T02:53:46.481Z,0.80
2023-08-03T02:54:46.426Z,0.60
2023-08-03T02:55:46.449Z,0.80
2023-08-03T02:56:46.402Z,0.90
2023-08-03T02:57:46.396Z,1.00
2023-08-03T02:58:46.363Z,1.10
2023-08-03T02:59:46.389Z,1.50
2023-08-03T03:00:46.337Z,0.80
2023-08-03T03:01:46.958Z,1.00
2023-08-03T03:02:46.385Z,1.00
2023-08-03T03:03:46.398Z,1.10
2023-08-03T03:04:46.300Z,1.50
2023-08-03T03:05:46.298Z,1.00
2023-08-03T03:06:46.364Z,1.10
2023-08-03T03:07:46.258Z,1.00
2023-08-03T03:08:46.251Z,1.20
2023-08-03T03:09:46.248Z,1.60
2023-08-03T03:10:46.203Z,1.00
2023-08-03T03:11:46.562Z,0.80
2023-08-03T03:12:46.213Z,1.60
2023-08-03T03:13:46.188Z,1.00
2023-08-03T03:14:46.155Z,0.90
2023-08-03T03:15:46.161Z,1.20
2023-08-03T03:16:46.175Z,1.00
2023-08-03T03:17:46.188Z,1.10
2023-08-03T03:18:46.115Z,0.90
2023-08-03T03:19:46.085Z,1.00
2023-08-03T03:20:46.153Z,1.20
2023-08-03T03:21:46.396Z,1.30
2023-08-03T03:22:46.085Z,1.00
2023-08-03T03:23:46.041Z,1.20
2023-08-03T03:24:46.043Z,1.00
2023-08-03T03:25:46.003Z,1.00
2023-08-03T03:26:46.058Z,1.00
2023-08-03T03:27:45.982Z,1.10
2023-08-03T03:28:46.028Z,1.40
2023-08-03T03:29:45.953Z,1.00
2023-08-03T03:30:45.974Z,1.70
2023-08-03T03:31:46.172Z,0.90
2023-08-03T03:32:45.982Z,1.30
2023-08-03T03:33:45.933Z,1.20
2023-08-03T03:34:45.933Z,1.10
2023-08-03T03:35:45.880Z,1.30
2023-08-03T03:36:45.889Z,0.90
2023-08-03T03:37:45.898Z,1.20
2023-08-03T03:38:45.863Z,0.70
2023-08-03T03:39:45.828Z,1.10
2023-08-03T03:40:45.848Z,1.00
2023-08-03T03:41:46.002Z,1.00
2023-08-03T03:42:45.837Z,0.80
2023-08-03T03:43:45.759Z,1.30
2023-08-03T03:44:45.788Z,1.30
2023-08-03T03:45:45.796Z,1.00
2023-08-03T03:46:45.766Z,1.20
2023-08-03T03:47:45.775Z,1.10
2023-08-03T03:48:45.737Z,1.00
2023-08-03T03:49:45.744Z,1.30
2023-08-03T03:50:45.739Z,1.10
2023-08-03T03:51:45.894Z,0.80
2023-08-03T03:52:45.682Z,1.10
2023-08-03T03:53:45.644Z,1.40
2023-08-03T03:54:45.646Z,1.00
2023-08-03T03:55:45.645Z,0.80
2023-08-03T03:56:45.624Z,0.70
2023-08-03T03:57:45.597Z,0.90
2023-08-03T03:58:45.606Z,1.30
2023-08-03T03:59:45.562Z,1.20
2023-08-03T04:00:45.622Z,0.70
2023-08-03T04:01:45.801Z,0.80
2023-08-03T04:02:45.606Z,0.80
2023-08-03T04:03:45.530Z,0.60
2023-08-03T04:04:45.517Z,0.80
2023-08-03T04:05:45.518Z,0.80
2023-08-03T04:06:45.598Z,0.90
2023-08-03T04:07:45.461Z,0.80
2023-08-03T04:08:45.467Z,0.70
2023-08-03T04:09:45.416Z,0.90
2023-08-03T04:10:45.438Z,0.80
2023-08-03T04:11:45.772Z,0.70
2023-08-03T04:12:45.432Z,0.80
2023-08-03T04:13:45.388Z,0.80
2023-08-03T04:14:45.411Z,0.70
2023-08-03T04:15:45.368Z,1.10
2023-08-03T04:16:45.397Z,0.90
2023-08-03T04:17:45.344Z,0.90
2023-08-03T04:18:45.329Z,0.60
2023-08-03T04:19:45.337Z,1.00
2023-08-03T04:20:45.302Z,0.90
2023-08-03T04:21:45.472Z,1.00
2023-08-03T04:22:46.955Z,1.10
2023-08-03T04:23:45.261Z,0.90
2023-08-03T04:24:45.244Z,0.80
2023-08-03T04:25:45.215Z,1.10
2023-08-03T04:26:45.267Z,1.40
2023-08-03T04:27:45.196Z,1.00
2023-08-03T04:28:45.207Z,1.40
2023-08-03T04:29:45.154Z,0.70
2023-08-03T04:30:45.224Z,0.70
2023-08-03T04:31:45.433Z,1.00
2023-08-03T04:32:45.172Z,0.70
2023-08-03T04:33:45.124Z,0.80
2023-08-03T04:34:45.129Z,0.90
2023-08-03T04:35:45.080Z,0.90
2023-08-03T04:36:45.088Z,0.80
2023-08-03T04:37:45.072Z,0.90
2023-08-03T04:38:45.054Z,0.90
2023-08-03T04:39:45.034Z,0.80
2023-08-03T04:40:45.050Z,1.20
2023-08-03T04:41:45.272Z,0.70
2023-08-03T04:42:45.002Z,0.90
2023-08-03T04:43:47.304Z,0.80
2023-08-03T04:44:44.999Z,0.80
2023-08-03T04:45:44.984Z,0.70
2023-08-03T04:46:44.969Z,0.60
2023-08-03T04:47:44.964Z,0.80
2023-08-03T04:48:44.933Z,0.50
2023-08-03T04:49:44.913Z,0.80
2023-08-03T04:50:44.926Z,0.60
2023-08-03T04:51:45.119Z,0.60
2023-08-03T04:52:44.862Z,0.80
2023-08-03T04:53:44.845Z,0.80
2023-08-03T04:54:44.865Z,0.80
2023-08-03T04:55:44.818Z,0.90
2023-08-03T04:56:44.863Z,0.80
2023-08-03T04:57:44.781Z,0.70
2023-08-03T04:58:44.804Z,1.00
2023-08-03T04:59:44.760Z,0.60
2023-08-03T05:00:44.926Z,1.20
2023-08-03T05:01:45.150Z,1.00
2023-08-03T05:02:44.783Z,0.70
2023-08-03T05:03:44.731Z,0.70
2023-08-03T05:04:44.739Z,0.60
2023-08-03T05:05:44.713Z,0.90
2023-08-03T05:06:44.746Z,0.80
2023-08-03T05:07:44.641Z,1.00
2023-08-03T05:08:44.691Z,0.60
2023-08-03T05:09:44.626Z,0.70
2023-08-03T05:10:44.649Z,0.60
2023-08-03T05:11:44.887Z,0.60
2023-08-03T05:12:44.631Z,0.80
2023-08-03T05:13:44.587Z,0.90
2023-08-03T05:14:44.591Z,0.90
2023-08-03T05:15:44.593Z,1.00
2023-08-03T05:16:44.640Z,1.20
2023-08-03T05:17:44.577Z,1.00
2023-08-03T05:18:44.532Z,0.70
2023-08-03T05:19:44.492Z,0.60
2023-08-03T05:20:44.528Z,0.90
2023-08-03T05:21:44.805Z,0.70
2023-08-03T05:22:44.526Z,1.10
2023-08-03T05:23:44.470Z,0.80
2023-08-03T05:24:44.454Z,1.30
2023-08-03T05:25:44.420Z,0.90
2023-08-03T05:26:44.415Z,1.00
2023-08-03T05:27:44.387Z,0.80
2023-08-03T05:28:44.503Z,1.00
2023-08-03T05:29:44.358Z,0.90
2023-08-03T05:30:44.399Z,0.90
2023-08-03T05:31:44.590Z,0.90
2023-08-03T05:32:44.374Z,1.20
2023-08-03T05:33:44.337Z,1.30
2023-08-03T05:34:44.353Z,1.10
2023-08-03T05:35:44.339Z,0.90
2023-08-03T05:36:44.284Z,0.90
2023-08-03T05:37:44.273Z,1.10
2023-08-03T05:38:44.294Z,1.10
2023-08-03T05:39:44.249Z,1.10
2023-08-03T05:40:44.351Z,1.60
2023-08-03T05:41:44.466Z,1.10
2023-08-03T05:42:44.229Z,1.20
2023-08-03T05:43:44.186Z,1.10
2023-08-03T05:44:44.218Z,1.20
2023-08-03T05:45:44.158Z,1.00
2023-08-03T05:46:44.211Z,0.70
2023-08-03T05:47:44.168Z,0.70
2023-08-03T05:48:44.127Z,1.50
2023-08-03T05:49:44.096Z,1.20
2023-08-03T05:50:44.138Z,1.10
2023-08-03T05:51:44.351Z,1.10
2023-08-03T05:52:44.074Z,0.60
2023-08-03T05:53:44.055Z,0.90
2023-08-03T05:54:46.394Z,0.80
2023-08-03T05:55:45.783Z,0.70
2023-08-03T05:56:44.045Z,0.50
2023-08-03T05:57:44.004Z,0.80
2023-08-03T05:58:44.000Z,1.00
2023-08-03T05:59:43.986Z,0.60
2023-08-03T06:00:43.979Z,0.50
2023-08-03T06:01:44.128Z,1.10
2023-08-03T06:02:43.952Z,0.80
2023-08-03T06:03:43.968Z,0.70
2023-08-03T06:04:43.933Z,0.70
2023-08-03T06:05:43.915Z,0.60
2023-08-03T06:06:43.943Z,1.10
2023-08-03T06:07:43.865Z,1.20
2023-08-03T06:08:43.872Z,0.60
2023-08-03T06:09:43.836Z,0.80
2023-08-03T06:10:43.883Z,0.50
2023-08-03T06:11:43.817Z,0.40
2023-08-03T06:12:43.815Z,0.70
2023-08-03T06:13:43.776Z,0.80
2023-08-03T06:14:43.785Z,0.60
2023-08-03T06:15:43.784Z,1.20
2023-08-03T06:16:43.773Z,0.80
2023-08-03T06:17:43.850Z,0.70
2023-08-03T06:18:43.751Z,0.70
2023-08-03T06:19:43.691Z,0.70
2023-08-03T06:20:43.733Z,0.80
2023-08-03T06:21:43.862Z,0.60
2023-08-03T06:22:43.691Z,1.00
2023-08-03T06:23:43.643Z,0.60
2023-08-03T06:24:43.660Z,0.70
2023-08-03T06:25:43.651Z,1.10
2023-08-03T06:26:43.633Z,0.80
2023-08-03T06:27:43.627Z,0.60
2023-08-03T06:28:43.591Z,0.60
2023-08-03T06:29:43.571Z,0.60
2023-08-03T06:30:43.584Z,0.60
2023-08-03T06:31:43.833Z,0.70
2023-08-03T06:32:43.576Z,0.50
2023-08-03T06:33:43.516Z,0.80
2023-08-03T06:34:43.530Z,0.50
2023-08-03T06:35:43.579Z,0.90
2023-08-03T06:36:43.550Z,0.80
2023-08-03T06:37:43.460Z,0.70
2023-08-03T06:38:43.509Z,0.60
2023-08-03T06:39:43.441Z,0.50
2023-08-03T06:40:43.477Z,0.70
2023-08-03T06:41:43.759Z,0.70
2023-08-03T06:42:43.426Z,0.70
2023-08-03T06:43:43.368Z,0.60
2023-08-03T06:44:43.385Z,0.60
2023-08-03T06:45:43.408Z,0.60
2023-08-03T06:46:43.396Z,0.90
2023-08-03T06:47:43.359Z,1.10
2023-08-03T06:48:43.329Z,0.70
2023-08-03T06:49:43.321Z,0.70
2023-08-03T06:50:43.307Z,0.80
2023-08-03T06:51:43.577Z,1.00
2023-08-03T06:52:43.285Z,0.70
2023-08-03T06:53:43.274Z,0.80
2023-08-03T06:54:43.262Z,0.60
2023-08-03T06:55:43.234Z,1.00
2023-08-03T06:56:43.229Z,0.80
2023-08-03T06:57:43.197Z,0.60
2023-08-03T06:58:43.235Z,0.60
2023-08-03T06:59:43.155Z,1.20
2023-08-03T07:00:43.217Z,0.80
2023-08-03T07:01:43.506Z,0.60
2023-08-03T07:02:43.390Z,0.70
2023-08-03T07:03:43.256Z,0.70
2023-08-03T07:04:43.174Z,0.70
2023-08-03T07:05:43.091Z,0.90
2023-08-03T07:06:43.157Z,1.10
2023-08-03T07:07:43.068Z,0.90
2023-08-03T07:08:43.139Z,0.90
2023-08-03T07:09:43.026Z,0.70
2023-08-03T07:10:43.073Z,1.10
2023-08-03T07:11:43.416Z,0.80
2023-08-03T07:12:43.003Z,1.00
2023-08-03T07:13:42.983Z,1.10
2023-08-03T07:14:42.991Z,0.90
2023-08-03T07:15:43.008Z,0.80
2023-08-03T07:16:42.979Z,0.90
2023-08-03T07:17:42.985Z,0.80
2023-08-03T07:18:42.944Z,0.70
2023-08-03T07:19:42.915Z,1.10
2023-08-03T07:20:42.921Z,0.90
2023-08-03T07:21:43.325Z,0.90
2023-08-03T07:22:42.872Z,1.10
2023-08-03T07:23:42.847Z,1.10
2023-08-03T07:24:42.855Z,0.80
2023-08-03T07:25:42.841Z,0.90
2023-08-03T07:26:42.864Z,0.80
2023-08-03T07:27:42.792Z,1.00
2023-08-03T07:28:42.811Z,1.10
2023-08-03T07:29:42.787Z,1.00
2023-08-03T07:30:42.797Z,0.90
2023-08-03T07:31:43.286Z,0.90
2023-08-03T07:32:42.773Z,0.90
2023-08-03T07:33:42.765Z,1.10
2023-08-03T07:34:42.710Z,0.90
2023-08-03T07:35:42.729Z,0.60
2023-08-03T07:36:42.668Z,0.90
2023-08-03T07:37:42.717Z,0.80
2023-08-03T07:38:42.673Z,0.90
2023-08-03T07:39:42.663Z,0.80
2023-08-03T07:40:42.644Z,0.80
2023-08-03T07:41:42.875Z,0.80
2023-08-03T07:42:42.620Z,0.80
2023-08-03T07:43:42.609Z,1.40
2023-08-03T07:46:42.604Z,0.90
2023-08-03T07:47:42.649Z,0.90
2023-08-03T07:48:42.558Z,0.70
2023-08-03T07:49:42.545Z,0.80
2023-08-03T07:50:42.501Z,0.90
2023-08-03T07:51:42.551Z,0.90
2023-08-03T07:52:42.466Z,1.00
2023-08-03T07:53:42.498Z,0.90
2023-08-03T07:54:42.449Z,0.90
2023-08-03T07:55:42.486Z,0.60
2023-08-03T07:56:42.401Z,0.70
2023-08-03T07:57:42.441Z,0.90
2023-08-03T07:58:42.386Z,1.00
2023-08-03T07:59:42.437Z,0.90
2023-08-03T08:00:42.455Z,1.90
2023-08-03T08:01:42.546Z,0.70
2023-08-03T08:02:42.353Z,0.80
2023-08-03T08:03:42.421Z,0.70
2023-08-03T08:04:42.402Z,0.70
2023-08-03T08:05:42.331Z,0.90
2023-08-03T08:06:42.279Z,1.00
2023-08-03T08:07:42.336Z,0.80
2023-08-03T08:08:42.266Z,1.30
2023-08-03T08:09:42.298Z,0.90
2023-08-03T08:10:42.285Z,0.80
2023-08-03T08:11:42.288Z,1.00
2023-08-03T08:12:42.185Z,0.80
2023-08-03T08:13:42.203Z,1.00
2023-08-03T08:14:42.193Z,1.10
2023-08-03T08:15:42.269Z,0.80
2023-08-03T08:16:42.174Z,0.90
2023-08-03T08:17:42.194Z,1.10
2023-08-03T08:18:42.266Z,0.90
2023-08-03T08:19:42.155Z,0.70
2023-08-03T08:20:42.096Z,1.10
2023-08-03T08:21:42.341Z,0.80
2023-08-03T08:22:42.134Z,1.40
2023-08-03T08:23:42.081Z,1.20
2023-08-03T08:24:42.070Z,1.00
2023-08-03T08:25:42.242Z,1.00
2023-08-03T08:26:42.205Z,0.80
2023-08-03T08:27:42.143Z,0.80
2023-08-03T08:28:45.800Z,1.10
2023-08-03T08:29:42.009Z,1.10
2023-08-03T08:30:42.051Z,0.70
2023-08-03T08:32:41.959Z,1.40
2023-08-03T08:33:41.979Z,1.20
2023-08-03T08:34:41.906Z,1.40
2023-08-03T08:35:41.945Z,1.10
2023-08-03T08:36:41.918Z,1.20
2023-08-03T08:37:41.890Z,1.10
2023-08-03T08:38:41.874Z,0.90
2023-08-03T08:39:41.913Z,0.80
2023-08-03T08:40:41.845Z,0.90
2023-08-03T08:41:42.330Z,0.80
2023-08-03T08:42:41.854Z,0.90
2023-08-03T08:43:41.846Z,0.80
2023-08-03T08:44:41.783Z,1.20
2023-08-03T08:45:41.791Z,1.00
2023-08-03T08:46:41.886Z,1.00
2023-08-03T08:47:41.919Z,1.00
2023-08-03T08:49:43.674Z,0.80
2023-08-03T08:59:41.588Z,1.40
2023-08-03T09:00:41.572Z,0.70
2023-08-03T09:01:41.695Z,0.80
2023-08-03T09:02:41.637Z,0.90
2023-08-03T09:04:41.577Z,0.90
2023-08-03T09:06:43.877Z,0.80
2023-08-03T09:07:41.549Z,1.30
2023-08-03T09:08:41.484Z,1.20
2023-08-03T09:09:41.484Z,1.40
2023-08-03T09:10:41.447Z,1.20
2023-08-03T09:11:41.671Z,0.90
2023-08-03T09:12:41.459Z,1.20
2023-08-03T09:13:41.412Z,1.00
2023-08-03T09:14:41.368Z,1.30
2023-08-03T09:15:41.398Z,0.70
2023-08-03T09:16:41.375Z,1.00
2023-08-03T09:17:41.448Z,0.90
2023-08-03T09:18:41.377Z,0.90
2023-08-03T09:20:43.861Z,0.90
2023-08-03T09:20:49.532Z,1.40
2023-08-03T09:24:41.286Z,0.90
2023-08-03T09:25:42.031Z,1.10
2023-08-03T09:28:41.266Z,0.90
2023-08-03T09:29:41.217Z,1.00
2023-08-03T09:30:41.212Z,1.10
2023-08-03T09:31:55.275Z,0.90
2023-08-03T09:32:50.800Z,1.20
2023-08-03T09:33:41.282Z,1.10
2023-08-03T09:36:41.092Z,0.60
2023-08-03T09:38:41.048Z,1.00
2023-08-03T09:39:41.059Z,0.70
2023-08-03T09:40:41.029Z,0.70
2023-08-03T09:42:41.020Z,0.90
2023-08-03T09:43:41.050Z,0.70
2023-08-03T09:44:40.967Z,1.00
2023-08-03T09:45:40.992Z,0.80
2023-08-03T09:46:41.011Z,1.10
2023-08-03T09:47:41.074Z,0.90
2023-08-03T09:48:41.004Z,0.80
2023-08-03T09:49:40.929Z,1.00
2023-08-03T09:50:40.987Z,0.80
2023-08-03T09:52:04.448Z,0.90
2023-08-03T09:53:40.902Z,0.70
2023-08-03T09:55:40.891Z,1.00
2023-08-03T09:56:40.925Z,1.30
2023-08-03T09:57:40.826Z,0.70
2023-08-03T09:58:40.781Z,1.10
2023-08-03T09:59:40.852Z,0.90
2023-08-03T10:00:46.165Z,0.80
2023-08-03T10:01:40.790Z,1.10
2023-08-03T10:02:40.739Z,1.00
2023-08-03T10:03:40.841Z,1.10
2023-08-03T10:04:40.731Z,1.30
2023-08-03T10:05:40.741Z,0.70
2023-08-03T10:06:40.722Z,0.90
2023-08-03T10:07:40.705Z,0.70
2023-08-03T10:08:40.995Z,0.80
2023-08-03T10:09:40.750Z,0.90
2023-08-03T10:10:40.643Z,0.70
2023-08-03T10:11:40.671Z,1.20
2023-08-03T10:12:40.684Z,1.00
2023-08-03T10:13:40.609Z,1.00
2023-08-03T10:14:40.597Z,0.70
2023-08-03T10:15:40.652Z,0.90
2023-08-03T10:16:40.581Z,0.80
2023-08-03T10:17:40.636Z,1.50
2023-08-03T10:18:50.199Z,0.80
2023-08-03T10:19:40.549Z,0.90
2023-08-03T10:20:40.661Z,1.00
2023-08-03T10:21:40.505Z,1.00
2023-08-03T10:22:40.484Z,1.00
2023-08-03T10:23:40.465Z,1.40
2023-08-03T10:24:40.500Z,0.80
2023-08-03T10:25:40.424Z,1.10
2023-08-03T10:26:40.480Z,0.70
2023-08-03T10:27:40.421Z,0.90
2023-08-03T10:28:40.407Z,0.70
2023-08-03T10:29:40.385Z,0.70
2023-08-03T10:30:40.418Z,0.90
2023-08-03T10:31:40.448Z,0.80
2023-08-03T10:32:40.422Z,0.70
2023-08-03T10:33:40.360Z,1.00
2023-08-03T10:34:40.334Z,1.00
2023-08-03T10:35:40.308Z,0.90
2023-08-03T10:36:42.223Z,0.90
2023-08-03T10:37:40.299Z,0.90
2023-08-03T10:38:40.277Z,0.90
2023-08-03T10:39:40.287Z,0.90
2023-08-03T10:40:40.263Z,0.90
2023-08-03T10:41:40.223Z,0.60
2023-08-03T10:42:40.317Z,0.80
2023-08-03T10:43:40.191Z,0.90
2023-08-03T10:44:40.238Z,0.60
2023-08-03T10:45:40.261Z,0.90
2023-08-03T10:46:40.293Z,0.80
2023-08-03T10:47:40.278Z,0.70
2023-08-03T10:48:40.315Z,0.70
2023-08-03T10:49:40.163Z,0.90
2023-08-03T10:50:40.120Z,1.00
2023-08-03T10:51:40.077Z,0.80
2023-08-03T10:52:40.120Z,0.90
2023-08-03T10:53:40.088Z,1.40
2023-08-03T10:54:40.102Z,0.80
2023-08-03T10:55:40.081Z,0.90
2023-08-03T10:56:40.115Z,0.90
2023-08-03T10:57:40.019Z,0.70
2023-08-03T10:58:40.055Z,0.80
2023-08-03T10:59:39.976Z,1.10
2023-08-03T11:00:40.010Z,1.10
2023-08-03T11:01:40.037Z,1.00
2023-08-03T11:02:40.062Z,0.80
2023-08-03T11:03:40.053Z,0.80
2023-08-03T11:04:40.009Z,0.70
2023-08-03T11:05:39.947Z,0.80
2023-08-03T11:06:39.910Z,1.30
2023-08-03T11:07:39.909Z,0.60
2023-08-03T11:08:39.920Z,0.90
2023-08-03T11:09:40.127Z,0.70
2023-08-03T11:10:39.872Z,0.60
2023-08-03T11:11:39.869Z,0.70
2023-08-03T11:12:39.839Z,0.60
2023-08-03T11:13:39.846Z,0.60
2023-08-03T11:14:39.837Z,0.90
2023-08-03T11:15:39.763Z,0.90
2023-08-03T11:16:39.802Z,0.80
2023-08-03T11:17:39.814Z,0.70
2023-08-03T11:18:39.753Z,0.70
2023-08-03T11:19:39.707Z,0.70
2023-08-03T11:20:39.752Z,0.60
2023-08-03T11:21:39.684Z,1.00
2023-08-03T11:22:39.714Z,0.90
2023-08-03T11:23:39.666Z,0.50
2023-08-03T11:24:39.678Z,0.70
2023-08-03T11:25:39.652Z,0.70
2023-08-03T11:26:39.682Z,0.60
2023-08-03T11:27:39.613Z,1.40
2023-08-03T11:28:39.660Z,0.60
2023-08-03T11:29:41.532Z,0.60
2023-08-03T11:30:39.588Z,0.50
2023-08-03T11:31:39.594Z,0.60
2023-08-03T11:32:39.610Z,0.80
2023-08-03T11:33:39.556Z,0.80
2023-08-03T11:34:39.600Z,0.50
2023-08-03T11:35:40.316Z,0.50
2023-08-03T11:36:39.541Z,0.70
2023-08-03T11:37:39.519Z,0.50
2023-08-03T11:38:39.481Z,0.60
2023-08-03T11:39:39.470Z,0.50
2023-08-03T11:40:39.522Z,0.40
2023-08-03T11:41:39.417Z,0.40
2023-08-03T11:42:39.464Z,0.50
2023-08-03T11:43:39.437Z,0.40
2023-08-03T11:44:49.885Z,1.30
2023-08-03T11:45:39.423Z,0.60
2023-08-03T11:46:39.418Z,0.60
2023-08-03T11:47:40.105Z,0.70
2023-08-03T11:48:39.335Z,0.70
2023-08-03T11:49:39.509Z,0.80
2023-08-03T11:50:39.388Z,0.50
2023-08-03T11:51:39.435Z,0.80
2023-08-03T11:52:39.669Z,0.50
2023-08-03T11:53:39.345Z,0.50
2023-08-03T11:54:39.366Z,0.60
2023-08-03T11:55:39.402Z,0.30
2023-08-03T11:56:45.768Z,0.90
2023-08-03T11:57:39.269Z,0.60
2023-08-03T11:58:39.276Z,0.40
2023-08-03T12:00:39.259Z,0.40
2023-08-03T12:01:39.249Z,0.40
2023-08-03T12:02:39.337Z,0.60
2023-08-03T12:03:39.215Z,0.50
2023-08-03T12:05:50.223Z,0.40
2023-08-03T12:07:39.336Z,0.70
2023-08-03T12:08:39.139Z,0.50
2023-08-03T12:09:39.084Z,0.60
2023-08-03T12:10:40.329Z,0.50
2023-08-03T12:11:39.439Z,0.60
2023-08-03T12:12:39.786Z,0.50
2023-08-03T12:13:39.698Z,0.30
2023-08-03T12:14:39.014Z,0.50
2023-08-03T12:15:39.024Z,0.60
2023-08-03T12:16:38.998Z,0.30
2023-08-03T12:17:39.007Z,0.60
2023-08-03T12:18:38.957Z,0.30
2023-08-03T12:19:39.982Z,0.30
2023-08-03T12:20:40.127Z,0.50
2023-08-03T12:21:38.963Z,0.60
2023-08-03T12:22:38.908Z,0.40
2023-08-03T12:23:38.921Z,0.50
2023-08-03T12:24:38.947Z,0.70
2023-08-03T12:25:42.179Z,0.30
2023-08-03T12:26:38.828Z,0.30
2023-08-03T12:27:38.869Z,0.50
2023-08-03T12:28:38.835Z,0.60
2023-08-03T12:29:42.238Z,0.70
2023-08-03T12:30:38.807Z,0.50
2023-08-03T12:31:38.816Z,0.50
2023-08-03T12:33:38.992Z,0.50
2023-08-03T12:34:38.730Z,0.80
2023-08-03T12:35:38.741Z,0.60
2023-08-03T12:36:38.748Z,0.40
2023-08-03T12:37:38.810Z,0.60
2023-08-03T12:38:38.677Z,0.30
2023-08-03T12:39:38.721Z,0.40
2023-08-03T12:40:39.602Z,0.50
2023-08-03T12:41:38.665Z,0.50
2023-08-03T12:42:38.633Z,0.40
2023-08-03T12:43:38.658Z,0.40
2023-08-03T12:44:38.605Z,0.60
2023-08-03T12:45:38.697Z,0.40
2023-08-03T12:46:38.584Z,0.40
2023-08-03T12:47:38.656Z,0.30
2023-08-03T12:48:38.715Z,0.70
2023-08-03T12:49:38.560Z,0.50
2023-08-03T12:50:38.583Z,0.60
2023-08-03T12:51:38.519Z,0.50
2023-08-03T12:52:38.574Z,0.40
2023-08-03T12:53:38.492Z,0.50
2023-08-03T12:54:38.499Z,0.30
2023-08-03T12:55:38.488Z,0.80
2023-08-03T12:56:38.454Z,0.40
2023-08-03T12:57:38.452Z,0.30
2023-08-03T12:58:40.292Z,0.50
2023-08-03T12:59:38.460Z,0.50
2023-08-03T13:00:38.401Z,0.50
2023-08-03T13:01:38.456Z,0.50
2023-08-03T13:02:42.272Z,0.50
2023-08-03T13:03:38.370Z,0.60
2023-08-03T13:04:38.376Z,0.50
2023-08-03T13:05:39.083Z,0.40
2023-08-03T13:06:38.324Z,0.50
2023-08-03T13:07:38.354Z,0.60
2023-08-03T13:08:38.341Z,0.40
2023-08-03T13:09:38.547Z,0.60
2023-08-03T13:10:38.297Z,0.40
2023-08-03T13:11:38.269Z,0.50
2023-08-03T13:12:38.362Z,0.90
2023-08-03T13:13:38.243Z,0.60
2023-08-03T13:14:38.244Z,0.60
2023-08-03T13:15:38.317Z,0.40
2023-08-03T13:16:38.263Z,0.50
2023-08-03T13:17:38.287Z,0.60
2023-08-03T13:18:38.274Z,0.50
2023-08-03T13:19:38.165Z,0.70
2023-08-03T13:20:39.868Z,0.50
2023-08-03T13:21:38.149Z,0.50
2023-08-03T13:22:38.108Z,0.50
2023-08-03T13:23:38.113Z,0.40
2023-08-03T13:24:38.074Z,0.40
2023-08-03T13:25:38.119Z,0.40
2023-08-03T13:26:38.123Z,0.50
2023-08-03T13:27:38.088Z,0.60
2023-08-03T13:28:38.061Z,0.50
2023-08-03T13:29:38.022Z,0.50
2023-08-03T13:30:38.002Z,0.50
2023-08-03T13:31:38.026Z,0.50
2023-08-03T13:32:38.042Z,0.50
2023-08-03T13:33:37.989Z,0.50
2023-08-03T13:34:37.981Z,0.80
2023-08-03T13:35:37.974Z,0.60
2023-08-03T13:36:37.964Z,1.00
2023-08-03T13:37:37.969Z,0.70
2023-08-03T13:38:37.902Z,0.70
2023-08-03T13:39:37.899Z,0.60
2023-08-03T13:40:37.862Z,0.50
2023-08-03T13:41:37.920Z,0.40
2023-08-03T13:42:41.143Z,0.70
2023-08-03T13:43:37.907Z,0.40
2023-08-03T13:44:37.836Z,0.40
2023-08-03T13:45:37.821Z,0.50
2023-08-03T13:46:37.799Z,0.60
2023-08-03T13:47:37.952Z,0.50
2023-08-03T13:48:37.788Z,0.70